createdAt,value
2017-06-16T00:00:24.891Z,73.88
2017-06-16T00:01:05.489Z,73.78
2017-06-16T00:01:46.070Z,73.78
2017-06-16T00:02:26.725Z,74.36
2017-06-16T00:03:07.312Z,73.97
2017-06-16T00:03:47.900Z,74.74
2017-06-16T00:04:28.500Z,74.84
2017-06-16T00:05:09.076Z,74.65
2017-06-16T00:05:49.740Z,74.84
2017-06-16T00:06:30.320Z,74.65
2017-06-16T00:07:10.920Z,75.32
2017-06-16T00:07:51.557Z,75.42
2017-06-16T00:08:32.234Z,75.51
2017-06-16T00:09:12.833Z,75.13
2017-06-16T00:09:53.459Z,75.71
2017-06-16T00:10:34.041Z,75.57
2017-06-16T00:11:14.619Z,75.38
2017-06-16T00:11:55.206Z,75.57
2017-06-16T00:12:35.811Z,74.99
2017-06-16T00:13:16.436Z,75.38
2017-06-16T00:13:57.042Z,75.61
2017-06-16T00:14:37.621Z,76.15
2017-06-16T00:15:18.212Z,75.48
2017-06-16T00:15:58.818Z,75.57
2017-06-16T00:16:39.396Z,75.38
2017-06-16T00:17:19.979Z,75.09
2017-06-16T00:18:00.602Z,75.28
2017-06-16T00:18:41.182Z,74.61
2017-06-16T00:19:21.772Z,74.51
2017-06-16T00:20:02.381Z,74.65
2017-06-16T00:20:42.983Z,74.74
2017-06-16T00:21:24.729Z,75.19
2017-06-16T00:22:05.336Z,74.84
2017-06-16T00:22:45.903Z,74.74
2017-06-16T00:23:26.481Z,74.99
2017-06-16T00:24:07.128Z,75.23
2017-06-16T00:24:47.714Z,74.74
2017-06-16T00:25:28.300Z,75.03
2017-06-16T00:26:08.904Z,75.28
2017-06-16T00:26:49.504Z,75.32
2017-06-16T00:27:30.124Z,75.28
2017-06-16T00:28:10.746Z,75.42
2017-06-16T00:28:51.326Z,75.13
2017-06-16T00:29:31.933Z,75.19
2017-06-16T00:30:12.527Z,75.32
2017-06-16T00:30:53.113Z,75.28
2017-06-16T00:31:33.703Z,75.28
2017-06-16T00:32:14.301Z,75.19
2017-06-16T00:32:54.916Z,75.28
2017-06-16T00:33:35.515Z,75.57
2017-06-16T00:34:16.116Z,75.09
2017-06-16T00:34:56.830Z,75.38
2017-06-16T00:35:37.454Z,75.19
2017-06-16T00:36:18.056Z,74.74
2017-06-16T00:36:58.648Z,74.61
2017-06-16T00:37:39.255Z,74.8
2017-06-16T00:38:19.859Z,74.99
2017-06-16T00:39:00.490Z,74.8
2017-06-16T00:39:41.144Z,75.09
2017-06-16T00:40:21.755Z,74.99
2017-06-16T00:41:02.371Z,75.38
2017-06-16T00:41:42.967Z,75.38
2017-06-16T00:42:23.550Z,75.09
2017-06-16T00:43:04.175Z,75.28
2017-06-16T00:43:44.768Z,74.9
2017-06-16T00:44:25.354Z,75.38
2017-06-16T00:45:05.942Z,74.8
2017-06-16T00:45:46.619Z,74.51
2017-06-16T00:46:27.228Z,74.61
2017-06-16T00:47:07.817Z,74.61
2017-06-16T00:47:48.415Z,74.99
2017-06-16T00:48:29.033Z,75.38
2017-06-16T00:49:09.662Z,75.09
2017-06-16T00:49:50.286Z,75.38
2017-06-16T00:50:30.909Z,74.99
2017-06-16T00:51:11.512Z,75.28
2017-06-16T00:51:52.104Z,75.09
2017-06-16T00:52:32.708Z,75.38
2017-06-16T00:53:13.342Z,75.28
2017-06-16T00:53:53.932Z,75.48
2017-06-16T00:54:34.535Z,75.67
2017-06-16T00:55:15.165Z,75.48
2017-06-16T00:55:55.765Z,75.19
2017-06-16T00:56:36.391Z,75.09
2017-06-16T00:57:16.962Z,75.28
2017-06-16T00:57:57.597Z,75.09
2017-06-16T00:58:38.201Z,75.09
2017-06-16T00:59:18.816Z,74.99
2017-06-16T00:59:59.394Z,75.09
2017-06-16T01:00:40.004Z,75.09
2017-06-16T01:01:20.591Z,75.28
2017-06-16T01:02:01.183Z,75.76
2017-06-16T01:02:41.807Z,75.48
2017-06-16T01:03:22.454Z,75.67
2017-06-16T01:04:03.105Z,75.76
2017-06-16T01:04:43.759Z,76.06
2017-06-16T01:05:24.360Z,75.86
2017-06-16T01:06:04.981Z,75.76
2017-06-16T01:06:45.616Z,75.96
2017-06-16T01:07:26.258Z,75.96
2017-06-16T01:08:06.883Z,76.06
2017-06-16T01:08:47.518Z,75.96
2017-06-16T01:09:28.131Z,76.06
2017-06-16T01:10:08.744Z,76.06
2017-06-16T01:10:49.325Z,76.15
2017-06-16T01:11:29.978Z,76.06
2017-06-16T01:12:10.596Z,75.67
2017-06-16T01:12:51.206Z,75.28
2017-06-16T01:13:31.843Z,75.76
2017-06-16T01:14:12.462Z,75.96
2017-06-16T01:14:53.104Z,75.48
2017-06-16T01:15:33.736Z,75.96
2017-06-16T01:16:14.342Z,75.96
2017-06-16T01:16:55.001Z,76.25
2017-06-16T01:17:35.603Z,76.06
2017-06-16T01:18:16.217Z,75.86
2017-06-16T01:18:56.853Z,76.06
2017-06-16T01:19:37.490Z,75.96
2017-06-16T01:20:18.076Z,75.76
2017-06-16T01:20:58.675Z,76.73
2017-06-16T01:21:39.360Z,76.44
2017-06-16T01:22:19.907Z,76.73
2017-06-16T01:23:00.538Z,76.82
2017-06-16T01:23:41.148Z,76.63
2017-06-16T01:24:21.769Z,76.21
2017-06-16T01:25:02.390Z,75.92
2017-06-16T01:25:43.013Z,76.44
2017-06-16T01:26:23.613Z,76.63
2017-06-16T01:27:04.240Z,76.82
2017-06-16T01:27:44.848Z,76.44
2017-06-16T01:28:25.464Z,76.44
2017-06-16T01:29:06.297Z,76.15
2017-06-16T01:29:46.933Z,76.63
2017-06-16T01:30:27.561Z,76.44
2017-06-16T01:31:08.198Z,76.44
2017-06-16T01:31:48.845Z,76.73
2017-06-16T01:32:29.486Z,76.73
2017-06-16T01:33:10.098Z,76.82
2017-06-16T01:33:50.702Z,76.11
2017-06-16T01:34:31.313Z,76.59
2017-06-16T01:35:11.917Z,76.59
2017-06-16T01:35:52.529Z,76.4
2017-06-16T01:36:33.160Z,76.5
2017-06-16T01:37:13.764Z,76.5
2017-06-16T01:37:54.377Z,76.59
2017-06-16T01:38:35.003Z,77.08
2017-06-16T01:39:15.660Z,77.08
2017-06-16T01:39:56.276Z,76.98
2017-06-16T01:40:37.566Z,76.69
2017-06-16T01:41:18.301Z,76.78
2017-06-16T01:41:58.898Z,77.26
2017-06-16T01:42:39.516Z,77.26
2017-06-16T01:43:20.149Z,77.75
2017-06-16T01:44:00.766Z,77.75
2017-06-16T01:44:41.363Z,77.56
2017-06-16T01:45:21.972Z,77.56
2017-06-16T01:46:02.577Z,77.84
2017-06-16T01:46:43.191Z,77.84
2017-06-16T01:47:23.773Z,77.94
2017-06-16T01:48:04.384Z,77.65
2017-06-16T01:48:44.987Z,77.75
2017-06-16T01:49:25.584Z,78.61
2017-06-16T01:50:06.234Z,78.33
2017-06-16T01:50:46.797Z,78.33
2017-06-16T01:51:27.394Z,78.13
2017-06-16T01:52:07.984Z,78.13
2017-06-16T01:52:48.580Z,78.13
2017-06-16T01:53:29.175Z,78.13
2017-06-16T01:54:09.771Z,78.28
2017-06-16T01:54:50.393Z,78.9
2017-06-16T01:55:30.980Z,78.42
2017-06-16T01:56:11.579Z,78.67
2017-06-16T01:56:52.230Z,78.67
2017-06-16T01:57:32.812Z,79.1
2017-06-16T01:58:13.408Z,78.81
2017-06-16T01:58:54.006Z,78.81
2017-06-16T01:59:34.603Z,78.67
2017-06-16T02:00:15.202Z,78.71
2017-06-16T02:00:55.810Z,78.61
2017-06-16T02:01:36.453Z,78.48
2017-06-16T02:02:17.002Z,78.58
2017-06-16T02:02:57.591Z,78.58
2017-06-16T02:03:38.210Z,78.58
2017-06-16T02:04:18.803Z,78.67
2017-06-16T02:04:59.423Z,78.9
2017-06-16T02:05:40.026Z,78.67
2017-06-16T02:06:20.628Z,78.67
2017-06-16T02:07:01.221Z,78.9
2017-06-16T02:07:41.813Z,78.86
2017-06-16T02:08:22.426Z,79
2017-06-16T02:09:03.048Z,78.67
2017-06-16T02:09:43.662Z,78.58
2017-06-16T02:10:24.253Z,78.77
2017-06-16T02:11:04.866Z,78.48
2017-06-16T02:11:45.472Z,78.71
2017-06-16T02:12:26.101Z,78.58
2017-06-16T02:13:06.688Z,78.86
2017-06-16T02:13:47.317Z,78.77
2017-06-16T02:14:28.049Z,79.15
2017-06-16T02:15:08.756Z,78.96
2017-06-16T02:15:49.355Z,78.86
2017-06-16T02:16:30.007Z,78.86
2017-06-16T02:17:10.623Z,78.67
2017-06-16T02:17:51.239Z,78.77
2017-06-16T02:18:31.863Z,78.86
2017-06-16T02:19:12.515Z,78.67
2017-06-16T02:19:53.240Z,78.86
2017-06-16T02:20:33.914Z,78.67
2017-06-16T02:21:14.465Z,78.58
2017-06-16T02:21:55.135Z,78.67
2017-06-16T02:22:35.740Z,78.19
2017-06-16T02:23:16.368Z,78.23
2017-06-16T02:23:56.999Z,77.94
2017-06-16T02:24:37.624Z,77.94
2017-06-16T02:25:18.228Z,78.23
2017-06-16T02:25:58.823Z,78.23
2017-06-16T02:26:39.422Z,77.84
2017-06-16T02:27:20.030Z,78.52
2017-06-16T02:28:00.693Z,78.13
2017-06-16T02:28:41.288Z,77.94
2017-06-16T02:29:21.882Z,78.13
2017-06-16T02:30:02.461Z,78.42
2017-06-16T02:30:43.069Z,78.03
2017-06-16T02:31:23.657Z,78.33
2017-06-16T02:32:04.264Z,78.03
2017-06-16T02:32:44.851Z,78.13
2017-06-16T02:33:25.485Z,78.03
2017-06-16T02:34:06.077Z,78.23
2017-06-16T02:34:46.732Z,77.56
2017-06-16T02:35:27.352Z,78.13
2017-06-16T02:36:07.913Z,78.23
2017-06-16T02:36:48.559Z,77.94
2017-06-16T02:37:29.117Z,77.75
2017-06-16T02:38:09.694Z,78.13
2017-06-16T02:38:50.279Z,78.23
2017-06-16T02:39:30.878Z,78.42
2017-06-16T02:40:11.527Z,78.9
2017-06-16T02:40:52.150Z,78.61
2017-06-16T02:41:32.758Z,78.71
2017-06-16T02:42:13.364Z,78.9
2017-06-16T02:42:53.955Z,78.9
2017-06-16T02:43:34.559Z,78.81
2017-06-16T02:44:15.168Z,78.13
2017-06-16T02:44:57.973Z,78.03
2017-06-16T02:46:45.539Z,78.81
2017-06-16T02:47:26.217Z,77.94
2017-06-16T02:48:06.816Z,78.13
2017-06-16T02:48:47.404Z,79
2017-06-16T02:49:28.173Z,78.33
2017-06-16T02:50:08.738Z,78.42
2017-06-16T02:50:49.370Z,78.13
2017-06-16T02:51:29.971Z,78.13
2017-06-16T02:52:10.564Z,78.23
2017-06-16T02:52:51.167Z,78.42
2017-06-16T02:53:31.754Z,78.13
2017-06-16T02:54:12.330Z,78.13
2017-06-16T02:54:52.915Z,78.52
2017-06-16T02:55:33.509Z,78.61
2017-06-16T02:56:14.153Z,78.9
2017-06-16T02:56:54.729Z,78.81
2017-06-16T02:57:35.341Z,78.61
2017-06-16T02:58:15.950Z,77.94
2017-06-16T02:58:56.534Z,78.13
2017-06-16T02:59:37.134Z,78.23
2017-06-16T03:00:17.738Z,77.94
2017-06-16T03:00:58.340Z,77.94
2017-06-16T03:01:38.951Z,77.75
2017-06-16T03:02:19.539Z,77.84
2017-06-16T03:03:00.161Z,77.75
2017-06-16T03:03:40.847Z,78.03
2017-06-16T03:04:21.459Z,78.13
2017-06-16T03:05:02.051Z,77.75
2017-06-16T03:05:42.639Z,78.23
2017-06-16T03:06:23.221Z,78.33
2017-06-16T03:07:03.817Z,78.81
2017-06-16T03:07:44.439Z,79
2017-06-16T03:08:25.043Z,78.42
2017-06-16T03:09:05.635Z,78.03
2017-06-16T03:09:46.227Z,78.81
2017-06-16T03:10:26.825Z,79.1
2017-06-16T03:11:07.416Z,78.9
2017-06-16T03:11:48.032Z,79
2017-06-16T03:12:28.627Z,78.81
2017-06-16T03:13:09.266Z,79
2017-06-16T03:13:49.911Z,78.71
2017-06-16T03:14:30.452Z,78.61
2017-06-16T03:15:11.086Z,78.9
2017-06-16T03:15:51.664Z,78.61
2017-06-16T03:16:32.256Z,78.61
2017-06-16T03:17:12.852Z,79
2017-06-16T03:17:53.448Z,79
2017-06-16T03:18:34.063Z,79.58
2017-06-16T03:19:14.649Z,78.81
2017-06-16T03:19:55.243Z,79.67
2017-06-16T03:20:35.859Z,78.71
2017-06-16T03:21:16.442Z,78.9
2017-06-16T03:21:57.036Z,78.71
2017-06-16T03:22:37.627Z,78.71
2017-06-16T03:23:18.232Z,78.81
2017-06-16T03:23:58.858Z,79.1
2017-06-16T03:24:39.458Z,78.81
2017-06-16T03:25:20.037Z,79
2017-06-16T03:26:00.638Z,79.58
2017-06-16T03:26:41.231Z,79.96
2017-06-16T03:27:21.848Z,80.06
2017-06-16T03:28:02.444Z,80.15
2017-06-16T03:28:43.051Z,79.48
2017-06-16T03:29:23.668Z,79.58
2017-06-16T03:30:04.272Z,79.28
2017-06-16T03:30:44.862Z,79.28
2017-06-16T03:31:25.489Z,79.96
2017-06-16T03:32:06.119Z,80.15
2017-06-16T03:32:46.721Z,80.06
2017-06-16T03:33:27.332Z,79.58
2017-06-16T03:34:07.946Z,79.58
2017-06-16T03:34:48.535Z,79.86
2017-06-16T03:35:29.128Z,80.06
2017-06-16T03:36:09.730Z,80.06
2017-06-16T03:36:50.318Z,80.25
2017-06-16T03:37:30.894Z,79.67
2017-06-16T03:38:11.478Z,79.28
2017-06-16T03:38:52.075Z,80.15
2017-06-16T03:39:32.706Z,79.77
2017-06-16T03:40:13.305Z,79.67
2017-06-16T03:40:53.903Z,79.48
2017-06-16T03:41:34.501Z,79.48
2017-06-16T03:42:15.100Z,79.38
2017-06-16T03:42:55.700Z,79.96
2017-06-16T03:43:36.310Z,79.67
2017-06-16T03:44:16.897Z,80.25
2017-06-16T03:44:57.507Z,80.06
2017-06-16T03:45:38.102Z,79.86
2017-06-16T03:46:18.700Z,80.15
2017-06-16T03:46:59.304Z,79.86
2017-06-16T03:47:39.917Z,79.77
2017-06-16T03:48:20.513Z,79.77
2017-06-16T03:49:01.144Z,80.06
2017-06-16T03:49:41.724Z,80.06
2017-06-16T03:50:22.317Z,79.96
2017-06-16T03:51:02.917Z,80.15
2017-06-16T03:51:43.522Z,79.86
2017-06-16T03:52:24.124Z,80.06
2017-06-16T03:53:04.739Z,79.19
2017-06-16T03:53:45.334Z,79.96
2017-06-16T03:54:25.949Z,80.06
2017-06-16T03:55:06.538Z,79.86
2017-06-16T03:55:47.128Z,80.06
2017-06-16T03:56:27.716Z,79.96
2017-06-16T03:57:08.325Z,79.86
2017-06-16T03:57:48.960Z,80.15
2017-06-16T03:58:29.539Z,79.48
2017-06-16T03:59:10.144Z,79.77
2017-06-16T03:59:50.743Z,79.28
2017-06-16T04:00:31.382Z,79.38
2017-06-16T04:01:11.977Z,79.38
2017-06-16T04:01:52.571Z,79.58
2017-06-16T04:02:33.171Z,79.58
2017-06-16T04:03:13.744Z,79.19
2017-06-16T04:03:54.355Z,79.48
2017-06-16T04:04:34.962Z,79.58
2017-06-16T04:05:15.534Z,79.48
2017-06-16T04:05:56.133Z,79.58
2017-06-16T04:06:36.735Z,79.48
2017-06-16T04:07:17.347Z,78.9
2017-06-16T04:07:57.952Z,79
2017-06-16T04:08:38.549Z,79.1
2017-06-16T04:09:19.154Z,78.9
2017-06-16T04:09:59.752Z,78.81
2017-06-16T04:10:40.341Z,79.58
2017-06-16T04:11:20.928Z,78.81
2017-06-16T04:12:01.494Z,79.1
2017-06-16T04:12:42.069Z,78.9
2017-06-16T04:13:22.662Z,78.61
2017-06-16T04:14:03.269Z,78.9
2017-06-16T04:14:43.883Z,78.9
2017-06-16T04:15:24.477Z,78.61
2017-06-16T04:16:05.080Z,78.9
2017-06-16T04:16:45.673Z,78.61
2017-06-16T04:17:26.286Z,78.71
2017-06-16T04:18:06.884Z,78.71
2017-06-16T04:18:47.492Z,78.42
2017-06-16T04:19:28.134Z,78.81
2017-06-16T04:20:08.743Z,78.71
2017-06-16T04:20:49.357Z,78.61
2017-06-16T04:21:29.988Z,78.61
2017-06-16T04:22:10.593Z,79.1
2017-06-16T04:22:51.201Z,78.9
2017-06-16T04:23:31.802Z,78.33
2017-06-16T04:24:12.399Z,78.13
2017-06-16T04:24:52.982Z,78.13
2017-06-16T04:25:33.569Z,78.13
2017-06-16T04:26:14.167Z,78.42
2017-06-16T04:26:54.764Z,79.1
2017-06-16T04:27:35.351Z,78.9
2017-06-16T04:28:15.944Z,78.13
2017-06-16T04:28:56.538Z,77.94
2017-06-16T04:29:37.142Z,78.13
2017-06-16T04:30:17.743Z,77.84
2017-06-16T04:30:58.328Z,78.13
2017-06-16T04:31:38.935Z,77.84
2017-06-16T04:32:19.515Z,78.13
2017-06-16T04:33:00.110Z,77.94
2017-06-16T04:33:40.714Z,78.33
2017-06-16T04:34:21.628Z,78.13
2017-06-16T04:35:02.269Z,78.13
2017-06-16T04:35:42.865Z,78.13
2017-06-16T04:36:23.487Z,78.33
2017-06-16T04:37:04.080Z,78.71
2017-06-16T04:37:44.672Z,78.81
2017-06-16T04:38:25.280Z,78.9
2017-06-16T04:39:05.873Z,79
2017-06-16T04:39:46.473Z,79.1
2017-06-16T04:40:27.076Z,78.61
2017-06-16T04:41:07.676Z,79
2017-06-16T04:41:48.280Z,78.61
2017-06-16T04:42:28.961Z,78.9
2017-06-16T04:43:09.634Z,79
2017-06-16T04:43:50.416Z,79
2017-06-16T04:44:31.010Z,79
2017-06-16T04:45:11.855Z,79.58
2017-06-16T04:45:52.512Z,79.58
2017-06-16T04:46:33.113Z,79.38
2017-06-16T04:47:13.712Z,79.58
2017-06-16T04:47:54.354Z,79.28
2017-06-16T04:48:34.982Z,79.28
2017-06-16T04:49:15.584Z,79.48
2017-06-16T04:49:56.160Z,79.38
2017-06-16T04:50:36.765Z,79.67
2017-06-16T04:51:17.420Z,79.53
2017-06-16T04:51:58.044Z,79.58
2017-06-16T04:52:38.650Z,79.58
2017-06-16T04:53:19.249Z,79.48
2017-06-16T04:53:59.848Z,79.77
2017-06-16T04:54:40.446Z,79.58
2017-06-16T04:55:21.034Z,79.58
2017-06-16T04:56:01.648Z,79.38
2017-06-16T04:56:42.258Z,79.38
2017-06-16T04:57:22.850Z,79.67
2017-06-16T04:58:03.438Z,79.1
2017-06-16T04:58:44.051Z,78.71
2017-06-16T04:59:24.662Z,78.71
2017-06-16T05:00:05.261Z,78.42
2017-06-16T05:00:45.846Z,78.33
2017-06-16T05:01:26.428Z,77.75
2017-06-16T05:02:07.006Z,77.94
2017-06-16T05:02:47.589Z,77.46
2017-06-16T05:03:28.174Z,77.75
2017-06-16T05:04:08.776Z,77.84
2017-06-16T05:04:49.372Z,77.84
2017-06-16T05:05:29.978Z,77.84
2017-06-16T05:06:10.641Z,77.75
2017-06-16T05:06:51.333Z,77.36
2017-06-16T05:07:31.924Z,77.26
2017-06-16T05:08:12.510Z,77.17
2017-06-16T05:08:53.085Z,76.92
2017-06-16T05:09:33.721Z,76.82
2017-06-16T05:10:14.349Z,76.44
2017-06-16T05:10:54.963Z,77.11
2017-06-16T05:11:35.531Z,76.82
2017-06-16T05:12:16.253Z,76.63
2017-06-16T05:12:56.834Z,76.92
2017-06-16T05:13:37.454Z,77.01
2017-06-16T05:14:18.015Z,77.01
2017-06-16T05:14:58.641Z,77.11
2017-06-16T05:15:39.244Z,76.53
2017-06-16T05:16:19.834Z,76.25
2017-06-16T05:17:00.432Z,75.48
2017-06-16T05:17:41.080Z,75.09
2017-06-16T05:18:21.693Z,75.19
2017-06-16T05:19:02.293Z,75.57
2017-06-16T05:19:42.898Z,75.67
2017-06-16T05:20:23.483Z,75.57
2017-06-16T05:21:04.148Z,75.09
2017-06-16T05:21:44.723Z,75.28
2017-06-16T05:22:25.362Z,75.28
2017-06-16T05:23:05.967Z,74.99
2017-06-16T05:23:46.567Z,74.71
2017-06-16T05:24:27.154Z,74.61
2017-06-16T05:25:07.771Z,74.41
2017-06-16T05:25:48.392Z,74.71
2017-06-16T05:26:29.080Z,74.8
2017-06-16T05:27:09.678Z,74.22
2017-06-16T05:27:50.258Z,74.51
2017-06-16T05:28:30.854Z,74.22
2017-06-16T05:29:11.462Z,74.9
2017-06-16T05:29:52.090Z,74.09
2017-06-16T05:30:32.667Z,73.94
2017-06-16T05:31:13.281Z,73.99
2017-06-16T05:31:53.900Z,74.38
2017-06-16T05:32:34.507Z,74.38
2017-06-16T05:33:15.152Z,73.94
2017-06-16T05:33:55.743Z,74.13
2017-06-16T05:34:36.349Z,74.32
2017-06-16T05:35:16.960Z,73.84
2017-06-16T05:35:57.717Z,73.16
2017-06-16T05:36:38.329Z,73.16
2017-06-16T05:37:18.919Z,73.26
2017-06-16T05:37:59.534Z,73.3
2017-06-16T05:38:40.126Z,73.68
2017-06-16T05:39:20.736Z,73.58
2017-06-16T05:40:01.425Z,73.39
2017-06-16T05:40:42.035Z,73.33
2017-06-16T05:41:22.628Z,72.85
2017-06-16T05:42:03.239Z,72.47
2017-06-16T05:42:43.829Z,72.08
2017-06-16T05:43:24.444Z,70.73
2017-06-16T05:44:05.036Z,70.25
2017-06-16T05:44:45.646Z,69.61
2017-06-16T05:45:26.238Z,69.42
2017-06-16T05:46:06.854Z,69.42
2017-06-16T05:46:47.432Z,69.8
2017-06-16T05:47:28.028Z,70.15
2017-06-16T05:48:08.646Z,70.38
2017-06-16T05:48:49.286Z,69.9
2017-06-16T05:49:29.931Z,70.57
2017-06-16T05:50:10.531Z,69.8
2017-06-16T05:50:51.153Z,69.03
2017-06-16T05:51:31.773Z,68.74
2017-06-16T05:52:12.392Z,67.97
2017-06-16T05:52:53.000Z,68.35
2017-06-16T05:53:33.657Z,68.87
2017-06-16T05:54:14.331Z,67.97
2017-06-16T05:54:54.937Z,67.88
2017-06-16T05:55:35.547Z,68.26
2017-06-16T05:56:16.165Z,68.26
2017-06-16T05:56:56.779Z,68.45
2017-06-16T05:57:37.404Z,68.74
2017-06-16T05:58:18.011Z,68.45
2017-06-16T05:58:58.603Z,68.07
2017-06-16T05:59:39.210Z,68.07
2017-06-16T06:00:19.830Z,68.35
2017-06-16T06:01:00.454Z,68.35
2017-06-16T06:01:41.086Z,68.07
2017-06-16T06:02:21.692Z,68.16
2017-06-16T06:03:02.299Z,68.07
2017-06-16T06:03:42.916Z,68.26
2017-06-16T06:04:23.521Z,68.13
2017-06-16T06:05:04.117Z,68.32
2017-06-16T06:05:44.725Z,68.71
2017-06-16T06:06:25.347Z,68.42
2017-06-16T06:07:05.957Z,68.99
2017-06-16T06:07:46.560Z,68.71
2017-06-16T06:08:27.166Z,68.23
2017-06-16T06:09:07.757Z,68.71
2017-06-16T06:09:48.371Z,68.71
2017-06-16T06:10:28.977Z,68.32
2017-06-16T06:11:22.064Z,68.23
2017-06-16T06:13:19.063Z,68.77
2017-06-16T06:13:59.658Z,68.96
2017-06-16T06:14:40.259Z,68.68
2017-06-16T06:15:20.868Z,68.29
2017-06-16T06:16:01.456Z,68.58
2017-06-16T06:16:42.062Z,68.19
2017-06-16T06:17:22.698Z,68.19
2017-06-16T06:18:03.286Z,68.19
2017-06-16T06:18:43.919Z,68.68
2017-06-16T06:19:24.521Z,69.25
2017-06-16T06:20:05.134Z,69.64
2017-06-16T06:20:45.725Z,67.81
2017-06-16T06:21:26.385Z,67.23
2017-06-16T06:22:06.997Z,67.13
2017-06-16T06:22:47.589Z,67.23
2017-06-16T06:23:28.208Z,67.1
2017-06-16T06:24:08.799Z,67.77
2017-06-16T06:24:49.396Z,67
2017-06-16T06:25:30.003Z,66.91
2017-06-16T06:26:10.610Z,66.42
2017-06-16T06:26:51.262Z,66.14
2017-06-16T06:27:31.847Z,65.85
2017-06-16T06:28:12.445Z,65.27
2017-06-16T06:28:53.030Z,65.66
2017-06-16T06:29:33.626Z,64.79
2017-06-16T06:30:14.211Z,63.82
2017-06-16T06:30:54.807Z,63.64
2017-06-16T06:31:35.421Z,64.18
2017-06-16T06:32:16.023Z,63.31
2017-06-16T06:32:56.612Z,63.79
2017-06-16T06:33:37.203Z,63.41
2017-06-16T06:34:17.816Z,63.7
2017-06-16T06:34:58.531Z,64.76
2017-06-16T06:35:39.133Z,64.76
2017-06-16T06:36:19.746Z,64.47
2017-06-16T06:37:00.335Z,64.15
2017-06-16T06:37:41.006Z,65.24
2017-06-16T06:38:21.535Z,65.01
2017-06-16T06:39:02.113Z,65.11
2017-06-16T06:39:42.700Z,65.59
2017-06-16T06:40:23.289Z,65.4
2017-06-16T06:41:03.909Z,66.36
2017-06-16T06:41:44.483Z,65.4
2017-06-16T06:42:25.082Z,65.78
2017-06-16T06:43:05.718Z,66.07
2017-06-16T06:43:46.315Z,66.46
2017-06-16T06:44:26.900Z,66.46
2017-06-16T06:45:07.514Z,66.65
2017-06-16T06:45:48.142Z,66.84
2017-06-16T06:46:35.685Z,66.55
2017-06-16T06:47:16.298Z,67.22
2017-06-16T06:47:56.889Z,66.94
2017-06-16T06:48:37.495Z,66.84
2017-06-16T06:49:18.091Z,67.38
2017-06-16T06:49:58.682Z,67.29
2017-06-16T06:50:39.278Z,67.48
2017-06-16T06:51:19.908Z,67.68
2017-06-16T06:52:00.513Z,68.25
2017-06-16T06:52:41.100Z,68.83
2017-06-16T06:53:21.703Z,69.6
2017-06-16T06:54:02.317Z,70.17
2017-06-16T06:54:42.911Z,70.62
2017-06-16T06:55:23.504Z,71.58
2017-06-16T06:56:04.123Z,71.77
2017-06-16T06:56:44.714Z,72.64
2017-06-16T06:57:25.302Z,72.54
2017-06-16T06:58:05.913Z,72.54
2017-06-16T06:58:46.499Z,72.79
2017-06-16T06:59:27.091Z,73.27
2017-06-16T07:00:07.674Z,73.27
2017-06-16T07:00:48.446Z,72.99
2017-06-16T07:01:28.902Z,73.37
2017-06-16T07:02:09.496Z,72.69
2017-06-16T07:02:50.092Z,72.99
2017-06-16T07:03:30.684Z,73.37
2017-06-16T07:04:11.293Z,73.08
2017-06-16T07:04:51.915Z,73.66
2017-06-16T07:05:32.521Z,74.23
2017-06-16T07:06:13.120Z,74.62
2017-06-16T07:06:53.695Z,74.81
2017-06-16T07:07:34.320Z,74.81
2017-06-16T07:08:14.905Z,74.48
2017-06-16T07:08:55.529Z,74.62
2017-06-16T07:09:36.107Z,74.29
2017-06-16T07:10:16.733Z,74.1
2017-06-16T07:10:57.320Z,74.68
2017-06-16T07:11:37.941Z,74.01
2017-06-16T07:12:18.513Z,74.01
2017-06-16T07:12:59.151Z,74.39
2017-06-16T07:13:39.747Z,74.87
2017-06-16T07:14:20.338Z,75.06
2017-06-16T07:15:00.928Z,75.45
2017-06-16T07:15:41.543Z,75.35
2017-06-16T07:16:22.143Z,75.35
2017-06-16T07:17:02.721Z,75.73
2017-06-16T07:17:43.300Z,76.02
2017-06-16T07:18:23.899Z,76.5
2017-06-16T07:19:04.500Z,76.59
2017-06-16T07:19:45.098Z,76.69
2017-06-16T07:20:25.706Z,76.31
2017-06-16T07:21:06.309Z,76.12
2017-06-16T07:21:46.927Z,75.92
2017-06-16T07:22:27.506Z,76.02
2017-06-16T07:23:08.105Z,75.82
2017-06-16T07:23:48.751Z,76.21
2017-06-16T07:24:29.323Z,75.82
2017-06-16T07:25:09.906Z,75.54
2017-06-16T07:25:51.371Z,74.77
2017-06-16T07:26:34.477Z,74.58
2017-06-16T07:27:15.479Z,73.62
2017-06-16T07:27:56.233Z,73.43
2017-06-16T07:28:36.832Z,73.24
2017-06-16T07:29:17.421Z,73.72
2017-06-16T07:29:58.003Z,73.81
2017-06-16T07:30:38.593Z,74.01
2017-06-16T07:31:19.179Z,74.58
2017-06-16T07:31:59.765Z,74.01
2017-06-16T07:32:40.362Z,72.95
2017-06-16T07:33:20.936Z,73.04
2017-06-16T07:34:01.527Z,72.95
2017-06-16T07:34:42.110Z,73.52
2017-06-16T07:35:22.694Z,74.01
2017-06-16T07:36:03.280Z,74.39
2017-06-16T07:36:43.865Z,75.06
2017-06-16T07:37:24.472Z,75.82
2017-06-16T07:38:05.064Z,75.82
2017-06-16T07:38:45.679Z,76.59
2017-06-16T07:39:26.267Z,75.73
2017-06-16T07:40:06.856Z,75.73
2017-06-16T07:40:47.443Z,75.45
2017-06-16T07:41:28.015Z,75.82
2017-06-16T07:42:08.614Z,76.21
2017-06-16T07:42:49.197Z,76.59
2017-06-16T07:43:29.794Z,76.4
2017-06-16T07:44:10.395Z,75.82
2017-06-16T07:44:50.973Z,76.21
2017-06-16T07:45:31.567Z,76.69
2017-06-16T07:46:12.163Z,76.79
2017-06-16T07:46:52.771Z,76.4
2017-06-16T07:47:33.364Z,76.21
2017-06-16T07:48:13.954Z,76.73
2017-06-16T07:48:54.545Z,76.34
2017-06-16T07:49:35.137Z,76.64
2017-06-16T07:50:15.713Z,76.44
2017-06-16T07:50:56.339Z,75.87
2017-06-16T07:51:36.946Z,75.87
2017-06-16T07:52:17.542Z,75.29
2017-06-16T07:52:58.158Z,75.1
2017-06-16T07:53:38.778Z,75.48
2017-06-16T07:54:19.411Z,75.48
2017-06-16T07:55:00.014Z,75.87
2017-06-16T07:55:40.626Z,75.87
2017-06-16T07:56:21.249Z,75.48
2017-06-16T07:57:01.831Z,74.71
2017-06-16T07:57:42.454Z,74.23
2017-06-16T07:58:23.038Z,73.79
2017-06-16T07:59:03.626Z,73.5
2017-06-16T07:59:44.244Z,73.69
2017-06-16T08:00:24.835Z,73.69
2017-06-16T08:01:05.425Z,73.79
2017-06-16T08:01:46.014Z,73.69
2017-06-16T08:02:26.625Z,73.69
2017-06-16T08:03:07.206Z,73.79
2017-06-16T08:03:47.816Z,72.92
2017-06-16T08:04:28.409Z,72.64
2017-06-16T08:05:09.008Z,73.11
2017-06-16T08:05:49.701Z,72.58
2017-06-16T08:06:30.306Z,71.81
2017-06-16T08:07:10.901Z,71.71
2017-06-16T08:07:51.528Z,71.33
2017-06-16T08:08:32.127Z,70.84
2017-06-16T08:09:12.730Z,70.75
2017-06-16T08:09:53.328Z,70.78
2017-06-16T08:10:33.935Z,70.37
2017-06-16T08:11:14.514Z,70.07
2017-06-16T08:11:55.097Z,70.27
2017-06-16T08:12:35.676Z,70.07
2017-06-16T08:13:16.270Z,70.37
2017-06-16T08:13:56.875Z,70.84
2017-06-16T08:14:37.470Z,71.04
2017-06-16T08:15:18.058Z,71.04
2017-06-16T08:15:58.694Z,71.71
2017-06-16T08:16:39.290Z,71.91
2017-06-16T08:17:19.880Z,71.91
2017-06-16T08:18:00.477Z,71.46
2017-06-16T08:18:41.081Z,71.75
2017-06-16T08:19:21.702Z,69.44
2017-06-16T08:20:02.306Z,67.71
2017-06-16T08:20:42.898Z,67.61
2017-06-16T08:21:23.476Z,67.86
2017-06-16T08:22:04.091Z,68.09
2017-06-16T08:22:44.704Z,67.77
2017-06-16T08:23:25.289Z,67.71
2017-06-16T08:24:05.899Z,67.51
2017-06-16T08:24:46.499Z,67.8
2017-06-16T08:25:27.078Z,67.51
2017-06-16T08:26:07.690Z,67.9
2017-06-16T08:26:48.288Z,68.15
2017-06-16T08:27:28.871Z,69.53
2017-06-16T08:28:09.465Z,69.73
2017-06-16T08:28:50.059Z,70.4
2017-06-16T08:29:30.651Z,70.68
2017-06-16T08:30:11.287Z,69.73
2017-06-16T08:30:51.859Z,69.28
2017-06-16T08:31:32.452Z,69.85
2017-06-16T08:32:13.058Z,69.28
2017-06-16T08:32:53.664Z,68.8
2017-06-16T08:33:34.266Z,68.99
2017-06-16T08:34:14.875Z,69.51
2017-06-16T08:34:55.483Z,69.51
2017-06-16T08:35:36.068Z,70.18
2017-06-16T08:36:16.703Z,69.41
2017-06-16T08:36:57.288Z,69.6
2017-06-16T08:37:37.894Z,68
2017-06-16T08:38:18.481Z,65.4
2017-06-16T08:38:59.101Z,63.95
2017-06-16T08:39:39.682Z,64.12
2017-06-16T08:40:20.283Z,65.37
2017-06-16T08:41:00.889Z,66.71
2017-06-16T08:41:41.473Z,66.75
2017-06-16T08:42:22.076Z,68.19
2017-06-16T08:43:02.685Z,66.75
2017-06-16T08:43:43.270Z,64.15
2017-06-16T08:44:23.855Z,63.38
2017-06-16T08:45:04.458Z,63.28
2017-06-16T08:45:45.058Z,63.44
2017-06-16T08:46:25.672Z,64.63
2017-06-16T08:47:06.255Z,63.67
2017-06-16T08:47:46.844Z,63.85
2017-06-16T08:48:27.427Z,63.57